Gordon Reid — CGBR — position and weather

sailwx.info

Track history (hours):
 
Tides and Currents Weather Stations Pressure Air Temp Water Temp Dewpoint Dewpoint Depression Visibility Wind Speed Wind Dir Waves Ship Positions

Gordon Reid

Last reported at 2014-Aug-01 03:08 UTC. Time now 2014-Aug-02 00:20 UTC.
Position N 54°16' W 130°21'.

Length 49.95 m; beam 11 m; draft 5.4 m.

Type: SAR. MMSI: 316094000.

Date/timePositionNaut miles runAvg speedWind from/ knotsBaromVisibWave heightAir tempDewpointWater temp
2014-Aug-01 03:08N 54°16' W 130°21'3 6.1
2014-Aug-01 02:33N 54°19' W 130°20'2 1.7
2014-Aug-01 01:26N 54°20' W 130°17'0 0.0
2014-Aug-01 00:32N 54°20' W 130°17'0 0.0
2014-Jul-31 23:32N 54°20' W 130°17'0 0.0
2014-Jul-31 22:32N 54°20' W 130°17'0 0.0
2014-Jul-31 21:32N 54°20' W 130°17'0 0.0
2014-Jul-31 20:32N 54°20' W 130°17'0 0.0
2014-Jul-31 19:33N 54°20' W 130°17'1 0.6
2014-Jul-31 18:32N 54°20' W 130°17'0 0.0
2014-Jul-31 17:33N 54°20' W 130°17'2 1.6
2014-Jul-31 16:33N 54°19' W 130°19'0 0.0
2014-Jul-31 15:33N 54°19' W 130°19'0 0.0
2014-Jul-31 14:33N 54°19' W 130°19'0 0.0
2014-Jul-31 13:33N 54°19' W 130°19'0 0.0
2014-Jul-31 12:33N 54°19' W 130°19'0 0.0
2014-Jul-31 11:33N 54°19' W 130°19'0 0.0
2014-Jul-31 10:33N 54°19' W 130°19'0 0.0
2014-Jul-31 09:33N 54°19' W 130°19'0 0.0
2014-Jul-31 08:33N 54°19' W 130°19'0 0.0
2014-Jul-31 07:33N 54°19' W 130°19'0 0.0
2014-Jul-31 06:33N 54°19' W 130°19'0 0.0
2014-Jul-31 05:33N 54°19' W 130°19'0 0.0
2014-Jul-31 04:33N 54°19' W 130°19'0 0.0
2014-Jul-31 03:33N 54°19' W 130°19'0 0.2
2014-Jul-31 02:33N 54°19' W 130°19'5 4.5
2014-Jul-31 01:33N 54°15' W 130°21'8 7.4
2014-Jul-31 00:32N 54°09' W 130°29'  
2014-Jul-24 20:33N 54°16' W 130°22'3 2.6
2014-Jul-24 19:33N 54°19' W 130°22'0 0.0
2014-Jul-24 18:33N 54°19' W 130°22'0 0.0
2014-Jul-24 17:33N 54°19' W 130°22'2 2.4
2014-Jul-24 16:34N 54°16' W 130°22'1 0.1
2014-Jul-24 02:33N 54°17' W 130°22'1 1.2
2014-Jul-24 01:31N 54°19' W 130°23'0 0.0
2014-Jul-24 00:31N 54°19' W 130°23'0 0.0
2014-Jul-23 23:31N 54°19' W 130°23'0 0.0
2014-Jul-23 22:31N 54°19' W 130°23'0 0.0
2014-Jul-23 21:31N 54°19' W 130°23'0 0.0
2014-Jul-23 20:31N 54°19' W 130°23'0 0.0
2014-Jul-23 19:31N 54°19' W 130°23'5 4.9
2014-Jul-23 18:33N 54°14' W 130°21'  
Track history (hours):
 
Tides and Currents Weather Stations Pressure Air Temp Water Temp Dewpoint Dewpoint Depression Visibility Wind Speed Wind Dir Waves Ship Positions

Gordon Reid

Last reported at 2014-Aug-01 03:08 UTC. Time now 2014-Aug-02 00:20 UTC.
Position N 54°16' W 130°21'.

Length 49.95 m; beam 11 m; draft 5.4 m.

Type: SAR. MMSI: 316094000.

Date/timePositionNaut miles runAvg speedWind from/ knotsBaromVisibWave heightAir tempDewpointWater temp
2014-Aug-01 03:08N 54°16' W 130°21'3 6.1
2014-Aug-01 02:33N 54°19' W 130°20'2 1.7
2014-Aug-01 01:26N 54°20' W 130°17'0 0.0
2014-Aug-01 00:32N 54°20' W 130°17'0 0.0
2014-Jul-31 23:32N 54°20' W 130°17'0 0.0
2014-Jul-31 22:32N 54°20' W 130°17'0 0.0
2014-Jul-31 21:32N 54°20' W 130°17'0 0.0
2014-Jul-31 20:32N 54°20' W 130°17'0 0.0
2014-Jul-31 19:33N 54°20' W 130°17'1 0.6
2014-Jul-31 18:32N 54°20' W 130°17'0 0.0
2014-Jul-31 17:33N 54°20' W 130°17'2 1.6
2014-Jul-31 16:33N 54°19' W 130°19'0 0.0
2014-Jul-31 15:33N 54°19' W 130°19'0 0.0
2014-Jul-31 14:33N 54°19' W 130°19'0 0.0
2014-Jul-31 13:33N 54°19' W 130°19'0 0.0
2014-Jul-31 12:33N 54°19' W 130°19'0 0.0
2014-Jul-31 11:33N 54°19' W 130°19'0 0.0
2014-Jul-31 10:33N 54°19' W 130°19'0 0.0
2014-Jul-31 09:33N 54°19' W 130°19'0 0.0
2014-Jul-31 08:33N 54°19' W 130°19'0 0.0
2014-Jul-31 07:33N 54°19' W 130°19'0 0.0
2014-Jul-31 06:33N 54°19' W 130°19'0 0.0
2014-Jul-31 05:33N 54°19' W 130°19'0 0.0
2014-Jul-31 04:33N 54°19' W 130°19'0 0.0
2014-Jul-31 03:33N 54°19' W 130°19'0 0.2
2014-Jul-31 02:33N 54°19' W 130°19'5 4.5
2014-Jul-31 01:33N 54°15' W 130°21'8 7.4
2014-Jul-31 00:32N 54°09' W 130°29'  
2014-Jul-24 20:33N 54°16' W 130°22'3 2.6
2014-Jul-24 19:33N 54°19' W 130°22'0 0.0
2014-Jul-24 18:33N 54°19' W 130°22'0 0.0
2014-Jul-24 17:33N 54°19' W 130°22'2 2.4
2014-Jul-24 16:34N 54°16' W 130°22'1 0.1
2014-Jul-24 02:33N 54°17' W 130°22'1 1.2
2014-Jul-24 01:31N 54°19' W 130°23'0 0.0
2014-Jul-24 00:31N 54°19' W 130°23'0 0.0
2014-Jul-23 23:31N 54°19' W 130°23'0 0.0
2014-Jul-23 22:31N 54°19' W 130°23'0 0.0
2014-Jul-23 21:31N 54°19' W 130°23'0 0.0
2014-Jul-23 20:31N 54°19' W 130°23'0 0.0
2014-Jul-23 19:31N 54°19' W 130°23'5 4.9
2014-Jul-23 18:33N 54°14' W 130°21'  

Dump ship's entire track history